createdAt,value
2023-01-12T00:01:55.104Z,79.04
2023-01-12T00:04:21.657Z,79.10
2023-01-12T00:06:48.233Z,78.52
2023-01-12T00:09:14.836Z,78.87
2023-01-12T00:11:41.267Z,78.97
2023-01-12T00:14:09.332Z,78.93
2023-01-12T00:16:39.435Z,78.58
2023-01-12T00:19:11.823Z,78.57
2023-01-12T00:21:57.023Z,78.65
2023-01-12T00:24:25.735Z,79.03
2023-01-12T00:26:53.431Z,78.37
2023-01-12T00:29:20.400Z,78.68
2023-01-12T00:31:47.159Z,78.50
2023-01-12T00:34:14.500Z,78.43
2023-01-12T00:36:41.426Z,78.52
2023-01-12T00:39:08.296Z,78.60
2023-01-12T00:41:55.725Z,78.47
2023-01-12T00:44:41.361Z,78.57
2023-01-12T00:47:07.900Z,78.81
2023-01-12T00:49:35.475Z,78.71
2023-01-12T00:52:02.456Z,78.89
2023-01-12T00:54:28.999Z,78.69
2023-01-12T00:56:56.469Z,78.79
2023-01-12T00:59:23.135Z,78.79
2023-01-12T01:01:50.137Z,79.07
2023-01-12T01:04:16.671Z,78.79
2023-01-12T01:06:43.136Z,78.42
2023-01-12T01:09:09.605Z,78.45
2023-01-12T01:11:36.256Z,78.34
2023-01-12T01:14:02.910Z,78.43
2023-01-12T01:16:30.110Z,78.92
2023-01-12T01:18:57.058Z,78.77
2023-01-12T01:21:23.526Z,78.76
2023-01-12T01:23:49.905Z,78.47
2023-01-12T01:26:22.317Z,78.67
2023-01-12T01:28:48.914Z,78.64
2023-01-12T01:31:21.584Z,78.24
2023-01-12T01:33:48.741Z,78.72
2023-01-12T01:36:16.184Z,78.42
2023-01-12T01:38:45.125Z,79.38
2023-01-12T01:41:24.736Z,79.50
2023-01-12T01:43:53.306Z,79.55
2023-01-12T01:46:41.076Z,79.60
2023-01-12T01:49:26.416Z,79.75
2023-01-12T01:51:58.212Z,79.61
2023-01-12T01:54:25.203Z,79.66
2023-01-12T01:56:56.503Z,79.48
2023-01-12T01:59:28.187Z,79.85
2023-01-12T02:01:55.215Z,79.69
2023-01-12T02:04:22.288Z,79.90
2023-01-12T02:06:49.360Z,79.68
2023-01-12T02:09:21.219Z,79.55
2023-01-12T02:12:07.353Z,79.62
2023-01-12T02:14:52.351Z,80.50
2023-01-12T02:17:46.589Z,79.99
2023-01-12T02:20:31.305Z,79.85
2023-01-12T02:23:22.662Z,80.27
2023-01-12T02:26:07.288Z,80.67
2023-01-12T02:28:45.759Z,79.67
2023-01-12T02:31:37.921Z,80.18
2023-01-12T02:34:18.731Z,80.29
2023-01-12T02:36:50.598Z,79.64
2023-01-12T02:39:43.831Z,79.97
2023-01-12T02:42:28.609Z,80.49
2023-01-12T02:45:27.173Z,80.88
2023-01-12T02:47:58.835Z,80.41
2023-01-12T02:50:29.283Z,79.82
2023-01-12T02:53:01.473Z,79.88
2023-01-12T02:55:30.003Z,79.96
2023-01-12T02:57:57.259Z,80.25
2023-01-12T03:00:24.049Z,80.32
2023-01-12T03:02:50.624Z,80.01
2023-01-12T03:05:17.015Z,80.59
2023-01-12T03:07:55.347Z,80.22
2023-01-12T03:10:50.700Z,80.06
2023-01-12T03:13:19.163Z,79.82
2023-01-12T03:15:49.847Z,80.10
2023-01-12T03:18:34.252Z,79.52
2023-01-12T03:21:16.912Z,79.28
2023-01-12T03:23:59.431Z,79.97
2023-01-12T03:26:28.359Z,79.55
2023-01-12T03:29:03.583Z,80.13
2023-01-12T03:31:30.166Z,79.28
2023-01-12T03:33:56.723Z,79.49
2023-01-12T03:36:41.645Z,79.50
2023-01-12T03:39:27.287Z,79.50
2023-01-12T03:42:04.412Z,79.10
2023-01-12T03:44:53.608Z,79.77
2023-01-12T03:47:24.932Z,79.19
2023-01-12T03:49:57.574Z,78.66
2023-01-12T03:52:25.747Z,78.82
2023-01-12T03:54:56.705Z,78.94
2023-01-12T03:57:23.547Z,78.90
2023-01-12T03:59:49.958Z,78.90
2023-01-12T04:02:16.549Z,78.03
2023-01-12T04:04:42.964Z,78.81
2023-01-12T04:07:09.431Z,78.95
2023-01-12T04:09:35.881Z,78.47
2023-01-12T04:12:11.062Z,77.89
2023-01-12T04:14:38.975Z,78.94
2023-01-12T04:17:06.295Z,78.87
2023-01-12T04:19:32.743Z,79.26
2023-01-12T04:22:17.894Z,77.86
2023-01-12T04:24:44.306Z,78.91
2023-01-12T04:27:10.883Z,78.57
2023-01-12T04:29:37.293Z,78.49
2023-01-12T04:32:05.121Z,78.60
2023-01-12T04:34:31.542Z,78.04
2023-01-12T04:36:58.019Z,78.61
2023-01-12T04:39:24.431Z,78.62
2023-01-12T04:41:50.851Z,78.66
2023-01-12T04:44:17.346Z,78.18
2023-01-12T04:46:43.747Z,77.41
2023-01-12T04:49:10.144Z,78.09
2023-01-12T04:51:36.528Z,77.02
2023-01-12T04:54:03.027Z,77.08
2023-01-12T04:56:31.167Z,77.23
2023-01-12T04:59:00.092Z,77.32
2023-01-12T05:01:28.831Z,78.13
2023-01-12T05:03:58.047Z,77.49
2023-01-12T05:06:24.625Z,76.47
2023-01-12T05:09:09.289Z,77.39
2023-01-12T05:11:35.735Z,77.29
2023-01-12T05:14:02.407Z,76.91
2023-01-12T05:16:28.953Z,77.20
2023-01-12T05:18:55.699Z,77.64
2023-01-12T05:21:23.812Z,76.97
2023-01-12T05:23:52.497Z,77.80
2023-01-12T05:26:19.721Z,76.73
2023-01-12T05:28:50.576Z,77.75
2023-01-12T05:31:17.543Z,76.73
2023-01-12T05:33:44.014Z,78.01
2023-01-12T05:36:13.161Z,78.03
2023-01-12T05:38:40.028Z,78.22
2023-01-12T05:41:07.577Z,78.77
2023-01-12T05:43:52.320Z,78.25
2023-01-12T05:46:23.685Z,78.77
2023-01-12T05:48:51.247Z,77.98
2023-01-12T05:51:18.176Z,77.70
2023-01-12T05:53:44.915Z,78.73
2023-01-12T05:56:21.087Z,77.30
2023-01-12T05:58:55.135Z,78.13
2023-01-12T06:01:22.478Z,78.37
2023-01-12T06:03:54.668Z,77.68
2023-01-12T06:06:22.653Z,77.85
2023-01-12T06:08:52.156Z,77.83
2023-01-12T06:11:38.090Z,78.12
2023-01-12T06:14:05.531Z,77.79
2023-01-12T06:16:32.233Z,78.51
2023-01-12T06:18:58.715Z,78.12
2023-01-12T06:21:25.527Z,78.16
2023-01-12T06:23:51.956Z,77.67
2023-01-12T06:26:18.410Z,77.17
2023-01-12T06:28:44.943Z,77.02
2023-01-12T06:31:13.212Z,77.80
2023-01-12T06:33:40.166Z,78.13
2023-01-12T06:36:07.321Z,77.68
2023-01-12T06:38:35.089Z,77.22
2023-01-12T06:41:03.074Z,77.55
2023-01-12T06:43:29.479Z,77.69
2023-01-12T06:45:56.008Z,78.05
2023-01-12T06:48:25.685Z,77.08
2023-01-12T06:51:01.890Z,78.04
2023-01-12T06:53:28.337Z,77.83
2023-01-12T06:55:54.745Z,77.26
2023-01-12T06:58:21.252Z,76.88
2023-01-12T07:00:47.745Z,77.70
2023-01-12T07:03:18.830Z,77.12
2023-01-12T07:05:45.596Z,77.69
2023-01-12T07:08:15.950Z,77.34
2023-01-12T07:10:42.973Z,76.78
2023-01-12T07:13:09.396Z,77.77
2023-01-12T07:15:36.033Z,78.71
2023-01-12T07:18:02.488Z,78.75
2023-01-12T07:20:29.000Z,78.34
2023-01-12T07:22:55.882Z,78.09
2023-01-12T07:25:23.073Z,78.86
2023-01-12T07:27:57.703Z,78.16
2023-01-12T07:30:25.602Z,78.91
2023-01-12T07:32:52.502Z,79.63
2023-01-12T07:35:19.348Z,79.01
2023-01-12T07:37:50.325Z,78.95
2023-01-12T07:40:18.005Z,80.02
2023-01-12T07:42:44.517Z,79.17
2023-01-12T07:45:11.959Z,79.69
2023-01-12T07:47:38.640Z,80.51
2023-01-12T07:50:05.826Z,78.69
2023-01-12T07:52:32.419Z,79.70
2023-01-12T07:54:58.838Z,79.09
2023-01-12T07:57:25.284Z,80.84
2023-01-12T07:59:51.689Z,79.15
2023-01-12T08:02:19.240Z,78.73
2023-01-12T08:04:46.425Z,80.03
2023-01-12T08:07:13.732Z,79.87
2023-01-12T08:09:40.192Z,80.17
2023-01-12T08:12:06.794Z,78.81
2023-01-12T08:14:39.399Z,78.69
2023-01-12T08:17:14.685Z,78.82
2023-01-12T08:19:47.274Z,80.11
2023-01-12T08:22:19.092Z,80.02
2023-01-12T08:24:52.098Z,79.39
2023-01-12T08:27:22.589Z,79.36
2023-01-12T08:29:52.048Z,79.99
2023-01-12T08:32:19.004Z,78.95
2023-01-12T08:34:48.259Z,79.46
2023-01-12T08:37:18.038Z,79.94
2023-01-12T08:39:46.019Z,80.23
2023-01-12T08:42:12.847Z,78.31
2023-01-12T08:44:39.518Z,78.27
2023-01-12T08:47:14.447Z,78.91
2023-01-12T08:49:40.967Z,77.90
2023-01-12T08:52:07.340Z,78.34
2023-01-12T08:54:33.979Z,77.55
2023-01-12T08:57:00.348Z,77.93
2023-01-12T08:59:26.756Z,77.62
2023-01-12T09:01:53.337Z,78.23
2023-01-12T09:04:19.883Z,76.70
2023-01-12T09:06:47.062Z,76.88
2023-01-12T09:09:16.741Z,77.45
2023-01-12T09:11:44.342Z,78.00
2023-01-12T09:14:12.096Z,77.71
2023-01-12T09:16:38.980Z,77.82
2023-01-12T09:19:05.611Z,77.21
2023-01-12T09:21:32.867Z,76.42
2023-01-12T09:23:59.435Z,77.44
2023-01-12T09:26:33.784Z,77.62
2023-01-12T09:29:02.216Z,78.07
2023-01-12T09:31:30.328Z,77.38
2023-01-12T09:33:57.952Z,77.36
2023-01-12T09:36:29.856Z,76.42
2023-01-12T09:38:58.084Z,76.38
2023-01-12T09:41:54.368Z,76.65
2023-01-12T09:44:47.280Z,76.20
2023-01-12T09:47:26.291Z,77.19
2023-01-12T09:50:16.248Z,75.30
2023-01-12T09:52:42.745Z,75.21
2023-01-12T09:55:20.782Z,75.79
2023-01-12T09:57:53.554Z,76.43
2023-01-12T10:00:21.054Z,76.54
2023-01-12T10:02:54.582Z,74.99
2023-01-12T10:05:39.871Z,74.06
2023-01-12T10:08:16.193Z,75.40
2023-01-12T10:10:54.629Z,74.11
2023-01-12T10:13:22.342Z,74.26
2023-01-12T10:16:02.656Z,76.18
2023-01-12T10:18:42.279Z,76.15
2023-01-12T10:21:10.927Z,75.70
2023-01-12T10:23:37.687Z,75.96
2023-01-12T10:26:24.628Z,76.91
2023-01-12T10:28:54.571Z,76.39
2023-01-12T10:31:25.160Z,77.10
2023-01-12T10:34:21.129Z,75.72
2023-01-12T10:36:49.792Z,75.86
2023-01-12T10:39:39.114Z,76.99
2023-01-12T10:42:44.132Z,77.16
2023-01-12T10:45:20.779Z,77.73
2023-01-12T10:47:49.361Z,77.01
2023-01-12T10:50:29.873Z,78.30
2023-01-12T10:53:13.694Z,77.99
2023-01-12T10:55:42.818Z,77.26
2023-01-12T10:58:30.849Z,77.61
2023-01-12T11:00:57.983Z,78.30
2023-01-12T11:03:33.806Z,79.48
2023-01-12T11:06:30.743Z,80.03
2023-01-12T11:08:57.613Z,78.67
2023-01-12T11:11:29.794Z,79.08
2023-01-12T11:13:59.958Z,79.97
2023-01-12T11:16:29.147Z,80.62
2023-01-12T11:19:05.192Z,79.82
2023-01-12T11:21:36.953Z,80.16
2023-01-12T11:24:39.002Z,78.49
2023-01-12T11:27:16.531Z,80.02
2023-01-12T11:30:18.713Z,78.28
2023-01-12T11:33:08.872Z,78.53
2023-01-12T11:35:58.319Z,79.15
2023-01-12T11:38:38.922Z,77.60
2023-01-12T11:41:10.120Z,79.41
2023-01-12T11:43:56.207Z,77.34
2023-01-12T11:46:41.048Z,77.08
2023-01-12T11:49:41.022Z,77.39
2023-01-12T11:52:10.721Z,78.07
2023-01-12T11:54:39.159Z,78.48
2023-01-12T11:57:43.341Z,78.63
2023-01-12T12:00:16.146Z,76.93
2023-01-12T12:03:11.722Z,77.84
2023-01-12T12:06:07.772Z,78.49
2023-01-12T12:08:50.749Z,78.40
2023-01-12T12:11:42.001Z,76.99
2023-01-12T12:14:30.951Z,76.70
2023-01-12T12:17:20.528Z,77.16
2023-01-12T12:19:58.964Z,76.14
2023-01-12T12:22:58.372Z,76.20
2023-01-12T12:25:54.760Z,75.66
2023-01-12T12:28:48.413Z,77.16
2023-01-12T12:31:44.315Z,77.69
2023-01-12T12:34:10.695Z,77.37
2023-01-12T12:36:55.398Z,76.88
2023-01-12T12:39:44.815Z,75.54
2023-01-12T12:42:48.673Z,75.52
2023-01-12T12:45:22.165Z,76.21
2023-01-12T12:48:23.922Z,76.86
2023-01-12T12:51:03.934Z,75.63
2023-01-12T12:53:43.607Z,74.79
2023-01-12T12:56:16.723Z,75.98
2023-01-12T12:58:49.977Z,76.19
2023-01-12T13:01:25.462Z,75.71
2023-01-12T13:03:55.141Z,76.74
2023-01-12T13:06:22.912Z,75.71
2023-01-12T13:08:52.515Z,75.95
2023-01-12T13:11:20.029Z,74.90
2023-01-12T13:14:05.959Z,76.34
2023-01-12T13:16:32.531Z,74.70
2023-01-12T13:18:58.928Z,76.32
2023-01-12T13:21:57.839Z,77.03
2023-01-12T13:24:41.918Z,75.57
2023-01-12T13:27:46.016Z,75.59
2023-01-12T13:30:52.463Z,76.21
2023-01-12T13:33:26.573Z,75.29
2023-01-12T13:35:53.022Z,76.49
2023-01-12T13:38:38.922Z,75.86
2023-01-12T13:41:46.760Z,75.51
2023-01-12T13:44:27.280Z,76.61
2023-01-12T13:47:03.958Z,75.91
2023-01-12T13:49:33.883Z,76.37
2023-01-12T13:52:03.965Z,75.63
2023-01-12T13:54:31.628Z,75.63
2023-01-12T13:57:06.650Z,76.27
2023-01-12T13:59:34.766Z,75.79
2023-01-12T14:02:01.454Z,76.50
2023-01-12T14:04:46.496Z,75.25
2023-01-12T14:07:20.579Z,76.36
2023-01-12T14:10:00.855Z,75.38
2023-01-12T14:12:57.027Z,75.20
2023-01-12T14:16:00.816Z,76.10
2023-01-12T14:18:40.219Z,75.29
2023-01-12T14:21:19.744Z,76.41
2023-01-12T14:23:46.156Z,76.21
2023-01-12T14:26:22.205Z,75.44
2023-01-12T14:28:51.186Z,75.00
2023-01-12T14:31:30.388Z,75.40
2023-01-12T14:33:59.421Z,76.75
2023-01-12T14:36:29.463Z,75.87
2023-01-12T14:38:59.164Z,76.50
2023-01-12T14:41:47.023Z,77.29
2023-01-12T14:44:39.550Z,75.73
2023-01-12T14:47:06.887Z,76.00
2023-01-12T14:49:35.889Z,76.78
2023-01-12T14:52:22.040Z,76.64
2023-01-12T14:54:48.593Z,76.15
2023-01-12T14:57:36.226Z,75.76
2023-01-12T15:00:05.752Z,76.62
2023-01-12T15:02:35.134Z,76.96
2023-01-12T15:05:10.752Z,77.60
2023-01-12T15:07:41.801Z,76.53
2023-01-12T15:10:14.221Z,76.21
2023-01-12T15:12:45.458Z,76.77
2023-01-12T15:15:19.666Z,76.68
2023-01-12T15:18:05.200Z,76.53
2023-01-12T15:20:59.173Z,77.15
2023-01-12T15:23:55.393Z,78.91
2023-01-12T15:26:22.150Z,79.25
2023-01-12T15:28:49.416Z,77.75
2023-01-12T15:31:27.966Z,78.88
2023-01-12T15:33:56.079Z,79.47
2023-01-12T15:36:22.788Z,79.49
2023-01-12T15:38:49.439Z,78.96
2023-01-12T15:41:43.217Z,79.38
2023-01-12T15:44:17.985Z,78.34
2023-01-12T15:46:44.817Z,79.33
2023-01-12T15:49:15.587Z,78.86
2023-01-12T15:51:51.701Z,78.25
2023-01-12T15:54:20.196Z,80.69
2023-01-12T15:56:47.964Z,80.92
2023-01-12T15:59:14.765Z,79.68
2023-01-12T16:01:46.769Z,80.41
2023-01-12T16:04:42.070Z,79.75
2023-01-12T16:07:05.435Z,79.98
2023-01-12T16:09:32.738Z,78.67
2023-01-12T16:11:59.447Z,80.29
2023-01-12T16:14:26.173Z,78.53
2023-01-12T16:16:52.839Z,79.03
2023-01-12T16:19:21.641Z,78.54
2023-01-12T16:21:48.227Z,79.40
2023-01-12T16:24:15.161Z,79.06
2023-01-12T16:26:41.654Z,79.32
2023-01-12T16:29:08.596Z,80.03
2023-01-12T16:31:38.101Z,80.83
2023-01-12T16:34:05.871Z,80.97
2023-01-12T16:36:33.540Z,80.85
2023-01-12T16:39:00.365Z,80.92
2023-01-12T16:41:26.890Z,80.06
2023-01-12T16:43:54.517Z,80.86
2023-01-12T16:46:21.088Z,81.51
2023-01-12T16:48:47.621Z,81.33
2023-01-12T16:51:15.962Z,81.62
2023-01-12T16:53:42.976Z,81.79
2023-01-12T16:56:14.974Z,83.69
2023-01-12T16:58:47.681Z,82.93
2023-01-12T17:01:18.068Z,83.65
2023-01-12T17:03:44.958Z,84.47
2023-01-12T17:06:15.261Z,84.82
2023-01-12T17:08:41.778Z,84.78
2023-01-12T17:11:10.698Z,84.16
2023-01-12T17:13:37.855Z,85.65
2023-01-12T17:16:10.357Z,85.16
2023-01-12T17:18:38.682Z,85.30
2023-01-12T17:21:09.272Z,85.00
2023-01-12T17:23:36.250Z,85.85
2023-01-12T17:26:04.312Z,85.09
2023-01-12T17:28:31.424Z,84.60
2023-01-12T17:30:58.197Z,84.28
2023-01-12T17:33:25.012Z,84.91
2023-01-12T17:35:51.671Z,84.44
2023-01-12T17:38:18.375Z,85.61
2023-01-12T17:40:44.898Z,85.58
2023-01-12T17:43:14.584Z,85.38
2023-01-12T17:45:42.719Z,84.24
2023-01-12T17:48:11.893Z,85.64
2023-01-12T17:50:40.384Z,86.47
2023-01-12T17:53:09.303Z,85.45
2023-01-12T17:55:43.534Z,85.50
2023-01-12T17:58:14.433Z,85.55
2023-01-12T18:00:40.935Z,86.09
2023-01-12T18:03:07.610Z,85.79
2023-01-12T18:05:34.235Z,84.99
2023-01-12T18:08:00.713Z,85.67
2023-01-12T18:10:30.176Z,84.76
2023-01-12T18:12:56.685Z,85.55
2023-01-12T18:15:23.945Z,86.22
2023-01-12T18:17:50.559Z,85.95
2023-01-12T18:20:17.080Z,85.18
2023-01-12T18:22:43.672Z,85.16
2023-01-12T18:25:10.355Z,84.48
2023-01-12T18:27:36.853Z,86.55
2023-01-12T18:30:03.679Z,85.61
2023-01-12T18:32:30.410Z,86.43
2023-01-12T18:34:58.104Z,86.05
2023-01-12T18:37:24.661Z,85.20
2023-01-12T18:39:51.178Z,86.23
2023-01-12T18:42:36.217Z,86.54
2023-01-12T18:45:04.515Z,86.24
2023-01-12T18:47:50.047Z,84.92
2023-01-12T18:50:35.573Z,85.01
2023-01-12T18:53:21.079Z,85.89
2023-01-12T18:55:48.446Z,85.11
2023-01-12T18:58:14.948Z,84.71
2023-01-12T19:00:41.721Z,85.07
2023-01-12T19:03:08.559Z,85.81
2023-01-12T19:05:42.280Z,86.18
2023-01-12T19:08:27.837Z,86.21
2023-01-12T19:10:55.067Z,85.11
2023-01-12T19:13:40.416Z,86.22
2023-01-12T19:16:26.122Z,85.26
2023-01-12T19:18:53.454Z,85.35
2023-01-12T19:21:38.578Z,85.66
2023-01-12T19:24:23.710Z,85.11
2023-01-12T19:27:09.196Z,86.67
2023-01-12T19:29:35.859Z,85.44
2023-01-12T19:32:02.900Z,85.53
2023-01-12T19:34:29.656Z,85.98
2023-01-12T19:36:56.184Z,86.00
2023-01-12T19:39:39.314Z,84.33
2023-01-12T19:42:25.432Z,85.03
2023-01-12T19:44:51.830Z,85.01
2023-01-12T19:47:18.262Z,84.72
2023-01-12T19:49:44.732Z,85.47
2023-01-12T19:52:11.202Z,84.27
2023-01-12T19:54:37.716Z,85.75
2023-01-12T19:57:04.187Z,86.03
2023-01-12T19:59:31.028Z,85.57
2023-01-12T20:01:57.552Z,84.20
2023-01-12T20:04:23.984Z,84.91
2023-01-12T20:06:53.127Z,84.98
2023-01-12T20:09:19.792Z,85.10
2023-01-12T20:11:52.778Z,86.02
2023-01-12T20:14:19.512Z,85.35
2023-01-12T20:16:46.743Z,85.11
2023-01-12T20:19:14.004Z,85.03
2023-01-12T20:21:40.732Z,84.40
2023-01-12T20:24:07.395Z,85.39
2023-01-12T20:26:33.872Z,84.96
2023-01-12T20:29:00.324Z,84.70
2023-01-12T20:31:26.830Z,86.15
2023-01-12T20:33:53.449Z,84.60
2023-01-12T20:36:20.370Z,86.23
2023-01-12T20:38:47.376Z,85.81
2023-01-12T20:41:13.911Z,84.95
2023-01-12T20:43:40.475Z,86.50
2023-01-12T20:46:11.755Z,84.97
2023-01-12T20:48:43.804Z,85.72
2023-01-12T20:51:12.854Z,85.77
2023-01-12T20:53:39.630Z,85.32
2023-01-12T20:56:06.381Z,85.21
2023-01-12T20:58:32.991Z,86.29
2023-01-12T21:01:00.329Z,85.49
2023-01-12T21:03:27.598Z,86.92
2023-01-12T21:05:55.076Z,87.15
2023-01-12T21:08:21.526Z,85.78
2023-01-12T21:10:51.066Z,87.19
2023-01-12T21:13:18.732Z,86.80
2023-01-12T21:15:45.383Z,87.56
2023-01-12T21:18:12.400Z,86.24
2023-01-12T21:20:43.010Z,87.50
2023-01-12T21:23:09.697Z,87.01
2023-01-12T21:25:41.481Z,87.09
2023-01-12T21:28:07.837Z,86.67
2023-01-12T21:30:35.005Z,86.17
2023-01-12T21:33:01.484Z,87.29
2023-01-12T21:35:27.958Z,86.41
2023-01-12T21:37:54.397Z,86.35
2023-01-12T21:40:27.824Z,87.02
2023-01-12T21:43:09.568Z,86.40
2023-01-12T21:45:39.878Z,87.51
2023-01-12T21:48:07.189Z,86.90
2023-01-12T21:50:34.005Z,87.35
2023-01-12T21:53:02.727Z,86.35
2023-01-12T21:55:29.871Z,86.48
2023-01-12T21:57:56.347Z,85.85
2023-01-12T22:00:23.335Z,87.74
2023-01-12T22:02:51.135Z,86.34
2023-01-12T22:05:18.260Z,87.71
2023-01-12T22:07:45.118Z,86.48
2023-01-12T22:10:20.918Z,86.38
2023-01-12T22:12:55.589Z,86.54
2023-01-12T22:15:23.384Z,86.55
2023-01-12T22:17:51.221Z,86.68
2023-01-12T22:20:18.288Z,86.37
2023-01-12T22:22:44.950Z,87.59
2023-01-12T22:25:13.904Z,86.09
2023-01-12T22:27:44.262Z,86.51
2023-01-12T22:30:13.708Z,86.85
2023-01-12T22:32:41.330Z,85.69
2023-01-12T22:35:08.730Z,86.72
2023-01-12T22:37:36.464Z,86.73
2023-01-12T22:40:04.804Z,86.16
2023-01-12T22:42:49.835Z,85.90
2023-01-12T22:45:16.325Z,85.85
2023-01-12T22:47:47.946Z,88.00
2023-01-12T22:50:14.865Z,86.08
2023-01-12T22:52:41.730Z,86.87
2023-01-12T22:55:08.624Z,87.04
2023-01-12T22:57:35.261Z,87.18
2023-01-12T23:00:01.730Z,86.92
2023-01-12T23:02:47.881Z,86.87
2023-01-12T23:05:14.463Z,87.52
2023-01-12T23:07:40.926Z,86.17
2023-01-12T23:10:08.444Z,87.68
2023-01-12T23:12:34.960Z,87.65
2023-01-12T23:15:01.405Z,86.53
2023-01-12T23:17:27.979Z,87.16
2023-01-12T23:19:54.445Z,87.42
2023-01-12T23:22:21.453Z,88.08
2023-01-12T23:24:48.315Z,87.40
2023-01-12T23:27:14.835Z,86.89
2023-01-12T23:29:41.354Z,86.98
2023-01-12T23:32:07.953Z,86.50
2023-01-12T23:34:34.405Z,86.40
2023-01-12T23:37:00.864Z,87.49
2023-01-12T23:39:27.345Z,87.83
2023-01-12T23:41:53.777Z,87.06
2023-01-12T23:44:20.334Z,86.53
2023-01-12T23:46:46.903Z,86.71
2023-01-12T23:49:13.367Z,86.87
2023-01-12T23:51:40.441Z,88.25
2023-01-12T23:54:07.704Z,86.70
2023-01-12T23:56:34.702Z,88.25
2023-01-12T23:59:01.500Z,88.41
